sensor_id;sensor_type;location;lat;lon;timestamp;P1;durP1;ratioP1;P2;durP2;ratioP2
26271;SDS011;13997;48.902;12.472;2022-08-18T00:00:15;8.15;;;3.20;;
26271;SDS011;13997;48.902;12.472;2022-08-18T00:02:41;6.90;;;3.10;;
26271;SDS011;13997;48.902;12.472;2022-08-18T00:05:09;7.40;;;3.70;;
26271;SDS011;13997;48.902;12.472;2022-08-18T00:07:37;10.93;;;4.05;;
26271;SDS011;13997;48.902;12.472;2022-08-18T00:10:04;14.02;;;3.97;;
26271;SDS011;13997;48.902;12.472;2022-08-18T00:12:32;6.75;;;3.35;;
26271;SDS011;13997;48.902;12.472;2022-08-18T00:14:59;5.40;;;3.20;;
26271;SDS011;13997;48.902;12.472;2022-08-18T00:17:28;8.52;;;3.75;;
26271;SDS011;13997;48.902;12.472;2022-08-18T00:19:54;12.05;;;2.95;;
26271;SDS011;13997;48.902;12.472;2022-08-18T00:22:20;8.68;;;3.05;;
26271;SDS011;13997;48.902;12.472;2022-08-18T00:24:49;15.65;;;3.40;;
26271;SDS011;13997;48.902;12.472;2022-08-18T00:27:19;65.85;;;5.68;;
26271;SDS011;13997;48.902;12.472;2022-08-18T00:29:46;21.90;;;3.60;;
26271;SDS011;13997;48.902;12.472;2022-08-18T00:32:16;8.57;;;3.53;;
26271;SDS011;13997;48.902;12.472;2022-08-18T00:34:43;8.60;;;4.00;;
26271;SDS011;13997;48.902;12.472;2022-08-18T00:37:09;16.60;;;3.70;;
26271;SDS011;13997;48.902;12.472;2022-08-18T00:39:35;7.18;;;3.88;;
26271;SDS011;13997;48.902;12.472;2022-08-18T00:42:11;13.15;;;4.25;;
26271;SDS011;13997;48.902;12.472;2022-08-18T00:44:38;5.93;;;3.65;;
26271;SDS011;13997;48.902;12.472;2022-08-18T00:47:04;10.55;;;3.88;;
26271;SDS011;13997;48.902;12.472;2022-08-18T00:49:30;6.70;;;3.50;;
26271;SDS011;13997;48.902;12.472;2022-08-18T00:51:56;12.40;;;3.42;;
26271;SDS011;13997;48.902;12.472;2022-08-18T00:54:24;8.52;;;3.75;;
26271;SDS011;13997;48.902;12.472;2022-08-18T00:56:52;9.43;;;3.92;;
26271;SDS011;13997;48.902;12.472;2022-08-18T00:59:30;9.18;;;4.00;;
26271;SDS011;13997;48.902;12.472;2022-08-18T01:01:58;5.65;;;3.50;;
26271;SDS011;13997;48.902;12.472;2022-08-18T01:04:34;13.13;;;4.25;;
26271;SDS011;13997;48.902;12.472;2022-08-18T01:07:06;6.03;;;4.15;;
26271;SDS011;13997;48.902;12.472;2022-08-18T01:09:33;12.35;;;4.40;;
26271;SDS011;13997;48.902;12.472;2022-08-18T01:11:59;12.25;;;4.22;;
26271;SDS011;13997;48.902;12.472;2022-08-18T01:14:25;15.48;;;4.50;;
26271;SDS011;13997;48.902;12.472;2022-08-18T01:16:51;10.57;;;4.30;;
26271;SDS011;13997;48.902;12.472;2022-08-18T01:19:36;7.28;;;4.18;;
26271;SDS011;13997;48.902;12.472;2022-08-18T01:24:50;7.10;;;3.90;;
26271;SDS011;13997;48.902;12.472;2022-08-18T01:27:35;12.98;;;4.70;;
26271;SDS011;13997;48.902;12.472;2022-08-18T01:30:05;9.13;;;4.95;;
26271;SDS011;13997;48.902;12.472;2022-08-18T01:32:34;11.25;;;4.97;;
26271;SDS011;13997;48.902;12.472;2022-08-18T01:35:00;10.55;;;4.78;;
26271;SDS011;13997;48.902;12.472;2022-08-18T01:37:26;9.25;;;4.45;;
26271;SDS011;13997;48.902;12.472;2022-08-18T01:39:53;21.13;;;5.13;;
26271;SDS011;13997;48.902;12.472;2022-08-18T01:42:20;13.52;;;5.38;;
26271;SDS011;13997;48.902;12.472;2022-08-18T01:44:46;13.38;;;5.35;;
26271;SDS011;13997;48.902;12.472;2022-08-18T01:47:15;9.80;;;5.05;;
26271;SDS011;13997;48.902;12.472;2022-08-18T01:49:42;16.83;;;5.53;;
26271;SDS011;13997;48.902;12.472;2022-08-18T01:52:10;14.10;;;6.00;;
26271;SDS011;13997;48.902;12.472;2022-08-18T01:54:40;19.13;;;6.10;;
26271;SDS011;13997;48.902;12.472;2022-08-18T01:57:06;9.45;;;5.40;;
26271;SDS011;13997;48.902;12.472;2022-08-18T01:59:37;9.85;;;5.90;;
26271;SDS011;13997;48.902;12.472;2022-08-18T02:02:03;11.57;;;5.65;;
26271;SDS011;13997;48.902;12.472;2022-08-18T02:04:29;8.18;;;5.57;;
26271;SDS011;13997;48.902;12.472;2022-08-18T02:07:00;15.65;;;5.60;;
26271;SDS011;13997;48.902;12.472;2022-08-18T02:09:27;11.07;;;5.47;;
26271;SDS011;13997;48.902;12.472;2022-08-18T02:11:53;7.72;;;5.93;;
26271;SDS011;13997;48.902;12.472;2022-08-18T02:14:19;15.23;;;6.15;;
26271;SDS011;13997;48.902;12.472;2022-08-18T02:16:45;14.50;;;6.00;;
26271;SDS011;13997;48.902;12.472;2022-08-18T02:19:11;11.43;;;6.03;;
26271;SDS011;13997;48.902;12.472;2022-08-18T02:21:37;12.57;;;6.25;;
26271;SDS011;13997;48.902;12.472;2022-08-18T02:24:03;9.75;;;6.53;;
26271;SDS011;13997;48.902;12.472;2022-08-18T02:26:29;14.35;;;6.50;;
26271;SDS011;13997;48.902;12.472;2022-08-18T02:28:55;16.67;;;6.78;;
26271;SDS011;13997;48.902;12.472;2022-08-18T02:31:22;9.93;;;6.07;;
26271;SDS011;13997;48.902;12.472;2022-08-18T02:33:48;10.60;;;5.82;;
26271;SDS011;13997;48.902;12.472;2022-08-18T02:36:15;9.65;;;5.80;;
26271;SDS011;13997;48.902;12.472;2022-08-18T02:38:41;11.32;;;5.65;;
26271;SDS011;13997;48.902;12.472;2022-08-18T02:41:08;11.73;;;6.00;;
26271;SDS011;13997;48.902;12.472;2022-08-18T02:43:35;13.50;;;6.20;;
26271;SDS011;13997;48.902;12.472;2022-08-18T02:46:01;15.77;;;5.80;;
26271;SDS011;13997;48.902;12.472;2022-08-18T02:48:29;11.60;;;5.63;;
26271;SDS011;13997;48.902;12.472;2022-08-18T02:51:14;7.50;;;5.50;;
26271;SDS011;13997;48.902;12.472;2022-08-18T02:53:43;9.82;;;5.75;;
26271;SDS011;13997;48.902;12.472;2022-08-18T02:56:13;8.93;;;5.60;;
26271;SDS011;13997;48.902;12.472;2022-08-18T02:58:50;10.77;;;6.40;;
26271;SDS011;13997;48.902;12.472;2022-08-18T03:01:17;8.23;;;5.68;;
26271;SDS011;13997;48.902;12.472;2022-08-18T03:03:43;8.02;;;5.72;;
26271;SDS011;13997;48.902;12.472;2022-08-18T03:06:09;10.18;;;6.13;;
26271;SDS011;13997;48.902;12.472;2022-08-18T03:08:36;8.45;;;6.65;;
26271;SDS011;13997;48.902;12.472;2022-08-18T03:11:02;16.35;;;6.18;;
26271;SDS011;13997;48.902;12.472;2022-08-18T03:13:28;8.95;;;6.68;;
26271;SDS011;13997;48.902;12.472;2022-08-18T03:15:54;11.80;;;5.68;;
26271;SDS011;13997;48.902;12.472;2022-08-18T03:18:20;13.88;;;5.93;;
26271;SDS011;13997;48.902;12.472;2022-08-18T03:20:47;14.57;;;6.78;;
26271;SDS011;13997;48.902;12.472;2022-08-18T03:23:13;8.43;;;6.10;;
26271;SDS011;13997;48.902;12.472;2022-08-18T03:25:43;9.40;;;6.47;;
26271;SDS011;13997;48.902;12.472;2022-08-18T03:28:09;9.87;;;5.80;;
26271;SDS011;13997;48.902;12.472;2022-08-18T03:30:36;10.18;;;6.65;;
26271;SDS011;13997;48.902;12.472;2022-08-18T03:33:02;14.85;;;5.78;;
26271;SDS011;13997;48.902;12.472;2022-08-18T03:35:28;14.32;;;6.90;;
26271;SDS011;13997;48.902;12.472;2022-08-18T03:37:57;8.32;;;6.00;;
26271;SDS011;13997;48.902;12.472;2022-08-18T03:40:23;12.77;;;6.85;;
26271;SDS011;13997;48.902;12.472;2022-08-18T03:42:49;12.13;;;6.90;;
26271;SDS011;13997;48.902;12.472;2022-08-18T03:45:15;9.30;;;6.07;;
26271;SDS011;13997;48.902;12.472;2022-08-18T03:47:41;9.38;;;6.03;;
26271;SDS011;13997;48.902;12.472;2022-08-18T03:50:09;9.65;;;6.32;;
26271;SDS011;13997;48.902;12.472;2022-08-18T03:52:36;9.95;;;6.38;;
26271;SDS011;13997;48.902;12.472;2022-08-18T03:55:02;12.80;;;6.57;;
26271;SDS011;13997;48.902;12.472;2022-08-18T03:57:28;10.25;;;6.30;;
26271;SDS011;13997;48.902;12.472;2022-08-18T03:59:57;11.05;;;5.90;;
26271;SDS011;13997;48.902;12.472;2022-08-18T04:02:23;9.73;;;6.80;;
26271;SDS011;13997;48.902;12.472;2022-08-18T04:04:49;11.65;;;7.13;;
26271;SDS011;13997;48.902;12.472;2022-08-18T04:07:15;8.50;;;7.00;;
26271;SDS011;13997;48.902;12.472;2022-08-18T04:09:43;8.77;;;6.60;;
26271;SDS011;13997;48.902;12.472;2022-08-18T04:12:13;10.55;;;6.28;;
26271;SDS011;13997;48.902;12.472;2022-08-18T04:14:40;10.02;;;7.30;;
26271;SDS011;13997;48.902;12.472;2022-08-18T04:17:07;9.68;;;6.75;;
26271;SDS011;13997;48.902;12.472;2022-08-18T04:19:34;11.25;;;6.57;;
26271;SDS011;13997;48.902;12.472;2022-08-18T04:22:01;9.40;;;6.50;;
26271;SDS011;13997;48.902;12.472;2022-08-18T04:24:28;12.15;;;7.20;;
26271;SDS011;13997;48.902;12.472;2022-08-18T04:26:55;7.32;;;6.07;;
26271;SDS011;13997;48.902;12.472;2022-08-18T04:29:21;7.88;;;6.45;;
26271;SDS011;13997;48.902;12.472;2022-08-18T04:31:47;8.60;;;6.20;;
26271;SDS011;13997;48.902;12.472;2022-08-18T04:34:14;13.30;;;6.53;;
26271;SDS011;13997;48.902;12.472;2022-08-18T04:36:40;9.10;;;6.50;;
26271;SDS011;13997;48.902;12.472;2022-08-18T04:39:07;8.32;;;6.50;;
26271;SDS011;13997;48.902;12.472;2022-08-18T04:41:34;11.55;;;5.70;;
26271;SDS011;13997;48.902;12.472;2022-08-18T04:44:02;8.25;;;6.18;;
26271;SDS011;13997;48.902;12.472;2022-08-18T04:46:29;8.70;;;6.20;;
26271;SDS011;13997;48.902;12.472;2022-08-18T04:48:57;10.23;;;6.70;;
26271;SDS011;13997;48.902;12.472;2022-08-18T04:51:23;9.18;;;6.60;;
26271;SDS011;13997;48.902;12.472;2022-08-18T04:53:50;10.07;;;6.45;;
26271;SDS011;13997;48.902;12.472;2022-08-18T04:56:23;9.50;;;6.60;;
26271;SDS011;13997;48.902;12.472;2022-08-18T05:01:18;10.57;;;6.40;;
26271;SDS011;13997;48.902;12.472;2022-08-18T05:03:46;10.40;;;6.60;;
26271;SDS011;13997;48.902;12.472;2022-08-18T05:06:12;12.77;;;6.65;;
26271;SDS011;13997;48.902;12.472;2022-08-18T05:08:38;8.23;;;6.30;;
26271;SDS011;13997;48.902;12.472;2022-08-18T05:11:04;7.45;;;5.88;;
26271;SDS011;13997;48.902;12.472;2022-08-18T05:13:30;11.40;;;6.80;;
26271;SDS011;13997;48.902;12.472;2022-08-18T05:15:57;11.00;;;6.95;;
26271;SDS011;13997;48.902;12.472;2022-08-18T05:18:31;8.70;;;6.45;;
26271;SDS011;13997;48.902;12.472;2022-08-18T05:20:57;12.27;;;6.97;;
26271;SDS011;13997;48.902;12.472;2022-08-18T05:23:24;11.80;;;6.82;;
26271;SDS011;13997;48.902;12.472;2022-08-18T05:25:55;10.25;;;6.78;;
26271;SDS011;13997;48.902;12.472;2022-08-18T05:30:47;14.82;;;7.07;;
26271;SDS011;13997;48.902;12.472;2022-08-18T05:33:13;10.65;;;7.30;;
26271;SDS011;13997;48.902;12.472;2022-08-18T05:35:50;13.02;;;8.05;;
26271;SDS011;13997;48.902;12.472;2022-08-18T05:43:29;11.98;;;6.97;;
26271;SDS011;13997;48.902;12.472;2022-08-18T05:45:55;8.52;;;6.63;;
26271;SDS011;13997;48.902;12.472;2022-08-18T05:48:23;8.13;;;6.55;;
26271;SDS011;13997;48.902;12.472;2022-08-18T05:50:49;11.25;;;7.15;;
26271;SDS011;13997;48.902;12.472;2022-08-18T05:53:15;7.35;;;6.05;;
26271;SDS011;13997;48.902;12.472;2022-08-18T05:56:02;10.23;;;6.75;;
26271;SDS011;13997;48.902;12.472;2022-08-18T05:58:52;10.00;;;6.43;;
26271;SDS011;13997;48.902;12.472;2022-08-18T06:01:30;9.55;;;6.47;;
26271;SDS011;13997;48.902;12.472;2022-08-18T06:05:00;14.68;;;6.93;;
26271;SDS011;13997;48.902;12.472;2022-08-18T06:06:53;11.15;;;7.28;;
26271;SDS011;13997;48.902;12.472;2022-08-18T06:09:31;10.18;;;6.80;;
26271;SDS011;13997;48.902;12.472;2022-08-18T06:12:12;10.68;;;6.65;;
26271;SDS011;13997;48.902;12.472;2022-08-18T06:14:41;8.15;;;7.13;;
26271;SDS011;13997;48.902;12.472;2022-08-18T06:20:03;11.80;;;6.68;;
26271;SDS011;13997;48.902;12.472;2022-08-18T06:25:17;11.20;;;6.63;;
26271;SDS011;13997;48.902;12.472;2022-08-18T06:28:00;7.32;;;5.72;;
26271;SDS011;13997;48.902;12.472;2022-08-18T06:30:39;11.90;;;7.00;;
26271;SDS011;13997;48.902;12.472;2022-08-18T06:33:57;11.23;;;6.57;;
26271;SDS011;13997;48.902;12.472;2022-08-18T06:36:03;8.70;;;6.68;;
26271;SDS011;13997;48.902;12.472;2022-08-18T06:41:14;9.68;;;6.40;;
26271;SDS011;13997;48.902;12.472;2022-08-18T06:43:59;9.30;;;6.25;;
26271;SDS011;13997;48.902;12.472;2022-08-18T06:46:31;7.18;;;6.00;;
26271;SDS011;13997;48.902;12.472;2022-08-18T06:49:44;7.70;;;5.43;;
26271;SDS011;13997;48.902;12.472;2022-08-18T06:52:25;7.82;;;5.82;;
26271;SDS011;13997;48.902;12.472;2022-08-18T06:55:14;10.63;;;6.22;;
26271;SDS011;13997;48.902;12.472;2022-08-18T06:57:54;9.40;;;5.57;;
26271;SDS011;13997;48.902;12.472;2022-08-18T07:00:22;10.80;;;6.80;;
26271;SDS011;13997;48.902;12.472;2022-08-18T07:02:50;10.02;;;5.63;;
26271;SDS011;13997;48.902;12.472;2022-08-18T07:05:21;8.85;;;5.68;;
26271;SDS011;13997;48.902;12.472;2022-08-18T07:08:05;12.60;;;5.53;;
26271;SDS011;13997;48.902;12.472;2022-08-18T07:10:36;9.25;;;6.20;;
26271;SDS011;13997;48.902;12.472;2022-08-18T07:13:07;7.40;;;5.90;;
26271;SDS011;13997;48.902;12.472;2022-08-18T07:15:33;31.30;;;24.20;;
26271;SDS011;13997;48.902;12.472;2022-08-18T07:18:04;10.00;;;6.82;;
26271;SDS011;13997;48.902;12.472;2022-08-18T07:20:49;11.73;;;7.57;;
26271;SDS011;13997;48.902;12.472;2022-08-18T07:23:29;9.70;;;5.65;;
26271;SDS011;13997;48.902;12.472;2022-08-18T07:26:03;12.38;;;5.75;;
26271;SDS011;13997;48.902;12.472;2022-08-18T07:31:37;8.55;;;6.05;;
26271;SDS011;13997;48.902;12.472;2022-08-18T07:34:12;10.05;;;5.95;;
26271;SDS011;13997;48.902;12.472;2022-08-18T07:36:44;18.05;;;6.95;;
26271;SDS011;13997;48.902;12.472;2022-08-18T07:39:22;10.98;;;6.03;;
26271;SDS011;13997;48.902;12.472;2022-08-18T07:44:39;7.60;;;4.93;;
26271;SDS011;13997;48.902;12.472;2022-08-18T07:47:24;16.60;;;7.32;;
26271;SDS011;13997;48.902;12.472;2022-08-18T07:49:53;9.57;;;4.90;;
26271;SDS011;13997;48.902;12.472;2022-08-18T07:52:36;6.72;;;4.93;;
26271;SDS011;13997;48.902;12.472;2022-08-18T07:55:09;14.00;;;5.97;;
26271;SDS011;13997;48.902;12.472;2022-08-18T07:57:38;8.43;;;5.53;;
26271;SDS011;13997;48.902;12.472;2022-08-18T08:05:37;12.23;;;5.28;;
26271;SDS011;13997;48.902;12.472;2022-08-18T08:08:01;6.25;;;5.05;;
26271;SDS011;13997;48.902;12.472;2022-08-18T08:10:54;9.07;;;5.18;;
26271;SDS011;13997;48.902;12.472;2022-08-18T08:13:39;8.30;;;4.90;;
26271;SDS011;13997;48.902;12.472;2022-08-18T08:16:32;7.10;;;5.20;;
26271;SDS011;13997;48.902;12.472;2022-08-18T08:21:49;10.95;;;5.40;;
26271;SDS011;13997;48.902;12.472;2022-08-18T08:24:19;12.13;;;5.45;;
26271;SDS011;13997;48.902;12.472;2022-08-18T08:26:58;11.05;;;4.88;;
26271;SDS011;13997;48.902;12.472;2022-08-18T08:29:28;24.25;;;5.97;;
26271;SDS011;13997;48.902;12.472;2022-08-18T08:32:05;14.70;;;4.70;;
26271;SDS011;13997;48.902;12.472;2022-08-18T08:37:01;8.95;;;5.13;;
26271;SDS011;13997;48.902;12.472;2022-08-18T08:40:11;12.48;;;4.85;;
26271;SDS011;13997;48.902;12.472;2022-08-18T08:42:27;8.02;;;4.70;;
26271;SDS011;13997;48.902;12.472;2022-08-18T08:45:11;15.57;;;5.45;;
26271;SDS011;13997;48.902;12.472;2022-08-18T08:50:21;8.27;;;4.60;;
26271;SDS011;13997;48.902;12.472;2022-08-18T08:55:26;8.10;;;4.72;;
26271;SDS011;13997;48.902;12.472;2022-08-18T09:00:32;16.60;;;4.72;;
26271;SDS011;13997;48.902;12.472;2022-08-18T09:08:25;8.57;;;4.43;;
26271;SDS011;13997;48.902;12.472;2022-08-18T09:24:44;13.10;;;4.22;;
26271;SDS011;13997;48.902;12.472;2022-08-18T09:26:48;6.82;;;3.80;;
26271;SDS011;13997;48.902;12.472;2022-08-18T09:31:45;9.68;;;4.07;;
26271;SDS011;13997;48.902;12.472;2022-08-18T09:34:17;8.70;;;4.00;;
26271;SDS011;13997;48.902;12.472;2022-08-18T09:39:30;7.22;;;3.67;;
26271;SDS011;13997;48.902;12.472;2022-08-18T09:42:26;10.30;;;4.22;;
26271;SDS011;13997;48.902;12.472;2022-08-18T09:49:50;7.93;;;3.88;;
26271;SDS011;13997;48.902;12.472;2022-08-18T09:57:22;8.60;;;3.80;;
26271;SDS011;13997;48.902;12.472;2022-08-18T09:59:50;7.10;;;4.28;;
26271;SDS011;13997;48.902;12.472;2022-08-18T10:05:21;8.43;;;3.55;;
26271;SDS011;13997;48.902;12.472;2022-08-18T10:07:39;8.48;;;3.72;;
26271;SDS011;13997;48.902;12.472;2022-08-18T10:20:42;6.25;;;3.60;;
26271;SDS011;13997;48.902;12.472;2022-08-18T10:23:39;7.10;;;3.47;;
26271;SDS011;13997;48.902;12.472;2022-08-18T10:25:58;6.40;;;3.30;;
26271;SDS011;13997;48.902;12.472;2022-08-18T10:31:30;7.97;;;3.10;;
26271;SDS011;13997;48.902;12.472;2022-08-18T10:34:14;4.68;;;3.20;;
26271;SDS011;13997;48.902;12.472;2022-08-18T10:40:00;8.15;;;3.10;;
26271;SDS011;13997;48.902;12.472;2022-08-18T10:45:35;7.38;;;2.83;;
26271;SDS011;13997;48.902;12.472;2022-08-18T10:50:49;10.15;;;3.03;;
26271;SDS011;13997;48.902;12.472;2022-08-18T10:53:22;5.80;;;3.05;;
26271;SDS011;13997;48.902;12.472;2022-08-18T10:56:01;9.07;;;2.90;;
26271;SDS011;13997;48.902;12.472;2022-08-18T11:06:40;6.75;;;3.05;;
26271;SDS011;13997;48.902;12.472;2022-08-18T11:09:07;5.97;;;2.90;;
26271;SDS011;13997;48.902;12.472;2022-08-18T11:11:35;4.25;;;3.00;;
26271;SDS011;13997;48.902;12.472;2022-08-18T11:19:15;4.85;;;2.80;;
26271;SDS011;13997;48.902;12.472;2022-08-18T11:21:44;6.80;;;3.28;;
26271;SDS011;13997;48.902;12.472;2022-08-18T11:24:23;7.28;;;3.15;;
26271;SDS011;13997;48.902;12.472;2022-08-18T11:27:00;6.95;;;2.90;;
26271;SDS011;13997;48.902;12.472;2022-08-18T11:29:36;11.90;;;2.88;;
26271;SDS011;13997;48.902;12.472;2022-08-18T11:34:42;7.18;;;3.30;;
26271;SDS011;13997;48.902;12.472;2022-08-18T11:37:19;5.28;;;2.80;;
26271;SDS011;13997;48.902;12.472;2022-08-18T11:39:46;5.35;;;2.78;;
26271;SDS011;13997;48.902;12.472;2022-08-18T11:42:13;5.75;;;2.92;;
26271;SDS011;13997;48.902;12.472;2022-08-18T11:44:40;4.82;;;2.90;;
26271;SDS011;13997;48.902;12.472;2022-08-18T11:47:07;3.97;;;3.00;;
26271;SDS011;13997;48.902;12.472;2022-08-18T11:49:33;6.10;;;3.13;;
26271;SDS011;13997;48.902;12.472;2022-08-18T11:52:03;7.18;;;3.42;;
26271;SDS011;13997;48.902;12.472;2022-08-18T11:54:42;4.90;;;2.80;;
26271;SDS011;13997;48.902;12.472;2022-08-18T11:59:56;8.27;;;3.00;;
26271;SDS011;13997;48.902;12.472;2022-08-18T12:02:23;7.22;;;3.00;;
26271;SDS011;13997;48.902;12.472;2022-08-18T12:04:51;12.25;;;3.38;;
26271;SDS011;13997;48.902;12.472;2022-08-18T12:07:25;5.80;;;3.00;;
26271;SDS011;13997;48.902;12.472;2022-08-18T12:10:09;5.90;;;3.00;;
26271;SDS011;13997;48.902;12.472;2022-08-18T12:12:43;10.52;;;3.28;;
26271;SDS011;13997;48.902;12.472;2022-08-18T12:17:36;5.15;;;3.22;;
26271;SDS011;13997;48.902;12.472;2022-08-18T12:20:03;6.57;;;2.83;;
26271;SDS011;13997;48.902;12.472;2022-08-18T12:22:32;7.80;;;3.05;;
26271;SDS011;13997;48.902;12.472;2022-08-18T12:24:59;8.07;;;3.00;;
26271;SDS011;13997;48.902;12.472;2022-08-18T12:27:26;7.68;;;3.03;;
26271;SDS011;13997;48.902;12.472;2022-08-18T12:29:53;7.00;;;3.15;;
26271;SDS011;13997;48.902;12.472;2022-08-18T12:32:20;4.18;;;2.90;;
26271;SDS011;13997;48.902;12.472;2022-08-18T12:34:46;7.32;;;2.92;;
26271;SDS011;13997;48.902;12.472;2022-08-18T12:37:17;7.95;;;2.90;;
26271;SDS011;13997;48.902;12.472;2022-08-18T12:39:43;8.52;;;3.20;;
26271;SDS011;13997;48.902;12.472;2022-08-18T12:42:10;9.88;;;3.60;;
26271;SDS011;13997;48.902;12.472;2022-08-18T12:44:36;6.45;;;2.63;;
26271;SDS011;13997;48.902;12.472;2022-08-18T12:47:03;6.47;;;3.17;;
26271;SDS011;13997;48.902;12.472;2022-08-18T12:49:31;5.80;;;2.92;;
26271;SDS011;13997;48.902;12.472;2022-08-18T12:51:58;11.60;;;3.15;;
26271;SDS011;13997;48.902;12.472;2022-08-18T12:54:24;7.72;;;2.80;;
26271;SDS011;13997;48.902;12.472;2022-08-18T12:56:51;4.70;;;3.05;;
26271;SDS011;13997;48.902;12.472;2022-08-18T12:59:18;7.55;;;2.70;;
26271;SDS011;13997;48.902;12.472;2022-08-18T13:01:44;7.43;;;3.22;;
26271;SDS011;13997;48.902;12.472;2022-08-18T13:04:10;4.13;;;2.70;;
26271;SDS011;13997;48.902;12.472;2022-08-18T13:06:38;6.63;;;3.10;;
26271;SDS011;13997;48.902;12.472;2022-08-18T13:09:05;9.95;;;2.92;;
26271;SDS011;13997;48.902;12.472;2022-08-18T13:11:31;3.53;;;2.90;;
26271;SDS011;13997;48.902;12.472;2022-08-18T13:13:57;5.47;;;2.80;;
26271;SDS011;13997;48.902;12.472;2022-08-18T13:16:24;14.05;;;4.25;;
26271;SDS011;13997;48.902;12.472;2022-08-18T13:18:51;7.25;;;3.00;;
26271;SDS011;13997;48.902;12.472;2022-08-18T13:21:18;4.50;;;2.95;;
26271;SDS011;13997;48.902;12.472;2022-08-18T13:23:44;3.90;;;2.92;;
26271;SDS011;13997;48.902;12.472;2022-08-18T13:26:20;9.45;;;3.05;;
26271;SDS011;13997;48.902;12.472;2022-08-18T13:28:47;5.72;;;2.88;;
26271;SDS011;13997;48.902;12.472;2022-08-18T13:31:13;11.15;;;2.90;;
26271;SDS011;13997;48.902;12.472;2022-08-18T13:33:40;5.25;;;2.90;;
26271;SDS011;13997;48.902;12.472;2022-08-18T13:36:06;5.95;;;2.80;;
26271;SDS011;13997;48.902;12.472;2022-08-18T13:38:32;5.70;;;2.95;;
26271;SDS011;13997;48.902;12.472;2022-08-18T13:40:58;5.20;;;3.05;;
26271;SDS011;13997;48.902;12.472;2022-08-18T13:43:59;6.05;;;3.00;;
26271;SDS011;13997;48.902;12.472;2022-08-18T13:46:18;8.20;;;2.97;;
26271;SDS011;13997;48.902;12.472;2022-08-18T13:48:45;6.88;;;2.90;;
26271;SDS011;13997;48.902;12.472;2022-08-18T13:51:21;5.13;;;3.00;;
26271;SDS011;13997;48.902;12.472;2022-08-18T13:53:47;8.60;;;3.38;;
26271;SDS011;13997;48.902;12.472;2022-08-18T13:56:13;10.38;;;3.05;;
26271;SDS011;13997;48.902;12.472;2022-08-18T13:58:39;14.43;;;3.15;;
26271;SDS011;13997;48.902;12.472;2022-08-18T14:01:06;10.15;;;3.05;;
26271;SDS011;13997;48.902;12.472;2022-08-18T14:03:32;7.90;;;3.08;;
26271;SDS011;13997;48.902;12.472;2022-08-18T14:05:59;10.75;;;2.80;;
26271;SDS011;13997;48.902;12.472;2022-08-18T14:08:26;6.45;;;3.25;;
26271;SDS011;13997;48.902;12.472;2022-08-18T14:10:53;22.70;;;3.58;;
26271;SDS011;13997;48.902;12.472;2022-08-18T14:13:20;5.75;;;3.13;;
26271;SDS011;13997;48.902;12.472;2022-08-18T14:15:47;7.45;;;3.45;;
26271;SDS011;13997;48.902;12.472;2022-08-18T14:18:13;8.57;;;3.20;;
26271;SDS011;13997;48.902;12.472;2022-08-18T14:20:39;10.23;;;3.45;;
26271;SDS011;13997;48.902;12.472;2022-08-18T14:23:24;12.93;;;2.65;;
26271;SDS011;13997;48.902;12.472;2022-08-18T14:26:09;9.15;;;3.65;;
26271;SDS011;13997;48.902;12.472;2022-08-18T14:28:54;4.13;;;2.60;;
26271;SDS011;13997;48.902;12.472;2022-08-18T14:31:20;6.78;;;3.33;;
26271;SDS011;13997;48.902;12.472;2022-08-18T14:33:46;8.02;;;3.35;;
26271;SDS011;13997;48.902;12.472;2022-08-18T14:36:13;4.80;;;2.95;;
26271;SDS011;13997;48.902;12.472;2022-08-18T14:38:39;2.95;;;2.65;;
26271;SDS011;13997;48.902;12.472;2022-08-18T14:41:06;6.72;;;3.75;;
26271;SDS011;13997;48.902;12.472;2022-08-18T14:43:32;5.63;;;3.15;;
26271;SDS011;13997;48.902;12.472;2022-08-18T14:46:00;6.35;;;3.20;;
26271;SDS011;13997;48.902;12.472;2022-08-18T14:48:26;7.65;;;3.42;;
26271;SDS011;13997;48.902;12.472;2022-08-18T14:50:53;7.78;;;3.17;;
26271;SDS011;13997;48.902;12.472;2022-08-18T14:53:20;8.77;;;3.05;;
26271;SDS011;13997;48.902;12.472;2022-08-18T14:55:47;11.50;;;3.30;;
26271;SDS011;13997;48.902;12.472;2022-08-18T14:58:26;5.82;;;3.10;;
26271;SDS011;13997;48.902;12.472;2022-08-18T15:00:56;6.32;;;3.20;;
26271;SDS011;13997;48.902;12.472;2022-08-18T15:03:23;9.68;;;3.50;;
26271;SDS011;13997;48.902;12.472;2022-08-18T15:05:49;8.13;;;3.10;;
26271;SDS011;13997;48.902;12.472;2022-08-18T15:08:15;6.18;;;3.28;;
26271;SDS011;13997;48.902;12.472;2022-08-18T15:10:43;8.57;;;3.35;;
26271;SDS011;13997;48.902;12.472;2022-08-18T15:13:09;9.35;;;3.60;;
26271;SDS011;13997;48.902;12.472;2022-08-18T15:15:35;11.85;;;4.30;;
26271;SDS011;13997;48.902;12.472;2022-08-18T15:18:01;7.88;;;3.15;;
26271;SDS011;13997;48.902;12.472;2022-08-18T15:20:28;6.25;;;3.40;;
26271;SDS011;13997;48.902;12.472;2022-08-18T15:22:54;5.28;;;2.67;;
26271;SDS011;13997;48.902;12.472;2022-08-18T15:25:42;8.48;;;3.00;;
26271;SDS011;13997;48.902;12.472;2022-08-18T15:28:17;6.38;;;2.83;;
26271;SDS011;13997;48.902;12.472;2022-08-18T15:30:48;10.75;;;3.70;;
26271;SDS011;13997;48.902;12.472;2022-08-18T15:33:15;8.02;;;3.33;;
26271;SDS011;13997;48.902;12.472;2022-08-18T15:35:44;11.48;;;3.28;;
26271;SDS011;13997;48.902;12.472;2022-08-18T15:38:12;6.90;;;3.78;;
26271;SDS011;13997;48.902;12.472;2022-08-18T15:40:49;7.53;;;3.78;;
26271;SDS011;13997;48.902;12.472;2022-08-18T15:43:16;4.88;;;3.20;;
26271;SDS011;13997;48.902;12.472;2022-08-18T15:45:45;13.77;;;4.30;;
26271;SDS011;13997;48.902;12.472;2022-08-18T15:48:15;6.75;;;3.70;;
26271;SDS011;13997;48.902;12.472;2022-08-18T15:50:43;10.18;;;3.47;;
26271;SDS011;13997;48.902;12.472;2022-08-18T15:53:12;11.77;;;3.35;;
26271;SDS011;13997;48.902;12.472;2022-08-18T15:55:39;5.63;;;3.25;;
26271;SDS011;13997;48.902;12.472;2022-08-18T15:58:05;7.65;;;3.08;;
26271;SDS011;13997;48.902;12.472;2022-08-18T16:00:32;9.00;;;3.55;;
26271;SDS011;13997;48.902;12.472;2022-08-18T16:02:59;6.38;;;3.13;;
26271;SDS011;13997;48.902;12.472;2022-08-18T16:05:29;8.93;;;3.55;;
26271;SDS011;13997;48.902;12.472;2022-08-18T16:07:57;7.90;;;3.60;;
26271;SDS011;13997;48.902;12.472;2022-08-18T16:10:25;7.80;;;3.35;;
26271;SDS011;13997;48.902;12.472;2022-08-18T16:12:53;14.95;;;3.90;;
26271;SDS011;13997;48.902;12.472;2022-08-18T16:15:21;27.65;;;4.10;;
26271;SDS011;13997;48.902;12.472;2022-08-18T16:17:49;18.30;;;3.45;;
26271;SDS011;13997;48.902;12.472;2022-08-18T16:20:15;5.18;;;3.17;;
26271;SDS011;13997;48.902;12.472;2022-08-18T16:22:42;8.07;;;3.22;;
26271;SDS011;13997;48.902;12.472;2022-08-18T16:25:08;9.68;;;3.10;;
26271;SDS011;13997;48.902;12.472;2022-08-18T16:27:34;10.30;;;3.40;;
26271;SDS011;13997;48.902;12.472;2022-08-18T16:30:05;5.65;;;3.60;;
26271;SDS011;13997;48.902;12.472;2022-08-18T16:32:32;9.20;;;3.70;;
26271;SDS011;13997;48.902;12.472;2022-08-18T16:34:57;9.82;;;3.15;;
26271;SDS011;13997;48.902;12.472;2022-08-18T16:37:23;8.25;;;3.53;;
26271;SDS011;13997;48.902;12.472;2022-08-18T16:39:51;7.93;;;3.33;;
26271;SDS011;13997;48.902;12.472;2022-08-18T16:42:19;8.27;;;3.50;;
26271;SDS011;13997;48.902;12.472;2022-08-18T16:44:45;5.28;;;3.35;;
26271;SDS011;13997;48.902;12.472;2022-08-18T16:47:11;11.77;;;3.13;;
26271;SDS011;13997;48.902;12.472;2022-08-18T16:49:41;10.27;;;3.57;;